KWVL/WVL METAR and TAF weather

Enter ICAO airport designator
Station Type Date Time Source
KWVL METAR 2022/01/10 12:56 UTC NOAA

KWVL 101256Z AUTO 32009KT 10SM FEW030 M08/M15 A2993 RMK AO2 SLP168 T10831150 FZRANO


Station Type Date Time Source
KWVL Decoded METAR 2022/01/10 12:56 UTC NOAA

Waterville, Waterville Robert LaFleur Airport, ME, United States (KWVL) 44-32N 069-41W
Jan 10, 2022 - 07:56 AM EST / 2022.01.10 1256 UTC
Wind: from the NW (320 degrees) at 10 MPH (9 KT):0
Visibility: 10 mile(s):0
Sky conditions: mostly clear
Temperature: 17.1 F (-8.3 C)
Windchill: 5 F (-15 C):1
Dew Point: 5.0 F (-15.0 C)
Relative Humidity: 58%
Pressure (altimeter): 29.93 in. Hg (1013 hPa)
ob: KWVL 101256Z AUTO 32009KT 10SM FEW030 M08/M15 A2993 RMK AO2 SLP168 T10831150 FZRANO
cycle: 13

Station Type Date Time Source
KWVL TAF UTC NOAA

Error!

Example: see airport list